sensor_id;sensor_type;location;lat;lon;timestamp;temperature;humidity
18932;DHT22;9598;50.954;3.112;2023-08-21T00:04:16;21.90;99.90
18932;DHT22;9598;50.954;3.112;2023-08-21T00:09:19;21.80;99.90
18932;DHT22;9598;50.954;3.112;2023-08-21T00:14:22;21.80;99.90
18932;DHT22;9598;50.954;3.112;2023-08-21T00:19:24;21.80;99.90
18932;DHT22;9598;50.954;3.112;2023-08-21T00:24:26;21.70;99.90
18932;DHT22;9598;50.954;3.112;2023-08-21T00:29:29;21.60;99.90
18932;DHT22;9598;50.954;3.112;2023-08-21T00:34:32;21.50;99.90
18932;DHT22;9598;50.954;3.112;2023-08-21T00:39:34;21.50;99.90
18932;DHT22;9598;50.954;3.112;2023-08-21T00:44:37;21.40;99.90
18932;DHT22;9598;50.954;3.112;2023-08-21T00:49:39;21.40;99.90
18932;DHT22;9598;50.954;3.112;2023-08-21T00:54:42;21.40;99.90
18932;DHT22;9598;50.954;3.112;2023-08-21T00:59:47;21.30;99.90
18932;DHT22;9598;50.954;3.112;2023-08-21T01:04:49;21.30;99.90
18932;DHT22;9598;50.954;3.112;2023-08-21T01:09:58;21.20;99.90
18932;DHT22;9598;50.954;3.112;2023-08-21T01:15:06;21.20;99.90
18932;DHT22;9598;50.954;3.112;2023-08-21T01:20:10;21.20;99.90
18932;DHT22;9598;50.954;3.112;2023-08-21T01:25:14;21.20;99.90
18932;DHT22;9598;50.954;3.112;2023-08-21T01:30:17;21.20;99.90
18932;DHT22;9598;50.954;3.112;2023-08-21T01:35:20;21.10;99.90
18932;DHT22;9598;50.954;3.112;2023-08-21T01:40:26;21.10;99.90
18932;DHT22;9598;50.954;3.112;2023-08-21T01:45:28;21.10;99.90
18932;DHT22;9598;50.954;3.112;2023-08-21T01:50:30;21.10;99.90
18932;DHT22;9598;50.954;3.112;2023-08-21T01:55:34;21.00;99.90
18932;DHT22;9598;50.954;3.112;2023-08-21T02:00:36;21.00;99.90
18932;DHT22;9598;50.954;3.112;2023-08-21T02:05:38;20.90;99.90
18932;DHT22;9598;50.954;3.112;2023-08-21T02:10:49;20.80;99.90
18932;DHT22;9598;50.954;3.112;2023-08-21T02:15:51;20.80;99.90
18932;DHT22;9598;50.954;3.112;2023-08-21T02:20:53;20.80;99.90
18932;DHT22;9598;50.954;3.112;2023-08-21T02:25:57;20.70;99.90
18932;DHT22;9598;50.954;3.112;2023-08-21T02:30:59;20.60;99.90
18932;DHT22;9598;50.954;3.112;2023-08-21T02:36:01;20.60;99.90
18932;DHT22;9598;50.954;3.112;2023-08-21T02:41:06;20.50;99.90
18932;DHT22;9598;50.954;3.112;2023-08-21T02:46:08;20.40;99.90
18932;DHT22;9598;50.954;3.112;2023-08-21T02:51:10;20.40;99.90
18932;DHT22;9598;50.954;3.112;2023-08-21T02:56:13;20.40;99.90
18932;DHT22;9598;50.954;3.112;2023-08-21T03:01:16;20.40;99.90
18932;DHT22;9598;50.954;3.112;2023-08-21T03:06:19;20.30;99.90
18932;DHT22;9598;50.954;3.112;2023-08-21T03:11:23;20.30;99.90
18932;DHT22;9598;50.954;3.112;2023-08-21T03:16:25;20.30;99.90
18932;DHT22;9598;50.954;3.112;2023-08-21T03:21:27;20.20;99.90
18932;DHT22;9598;50.954;3.112;2023-08-21T03:26:32;20.20;99.90
18932;DHT22;9598;50.954;3.112;2023-08-21T03:31:34;20.20;99.90
18932;DHT22;9598;50.954;3.112;2023-08-21T03:36:36;20.20;99.90
18932;DHT22;9598;50.954;3.112;2023-08-21T03:41:41;20.10;99.90
18932;DHT22;9598;50.954;3.112;2023-08-21T03:46:43;20.00;99.90
18932;DHT22;9598;50.954;3.112;2023-08-21T03:51:45;19.90;99.90
18932;DHT22;9598;50.954;3.112;2023-08-21T03:56:48;19.90;99.90
18932;DHT22;9598;50.954;3.112;2023-08-21T04:01:50;19.90;99.90
18932;DHT22;9598;50.954;3.112;2023-08-21T04:06:52;19.90;99.90
18932;DHT22;9598;50.954;3.112;2023-08-21T04:11:56;19.80;99.90
18932;DHT22;9598;50.954;3.112;2023-08-21T04:16:58;19.70;99.90
18932;DHT22;9598;50.954;3.112;2023-08-21T04:22:00;19.60;99.90
18932;DHT22;9598;50.954;3.112;2023-08-21T04:27:03;19.60;99.90
18932;DHT22;9598;50.954;3.112;2023-08-21T04:32:05;19.50;99.90
18932;DHT22;9598;50.954;3.112;2023-08-21T04:37:08;19.50;99.90
18932;DHT22;9598;50.954;3.112;2023-08-21T04:42:12;19.50;99.90
18932;DHT22;9598;50.954;3.112;2023-08-21T04:47:22;19.40;99.90
18932;DHT22;9598;50.954;3.112;2023-08-21T04:52:28;19.40;99.90
18932;DHT22;9598;50.954;3.112;2023-08-21T04:57:32;19.30;99.90
18932;DHT22;9598;50.954;3.112;2023-08-21T05:02:34;19.30;99.90
18932;DHT22;9598;50.954;3.112;2023-08-21T05:07:37;19.30;99.90
18932;DHT22;9598;50.954;3.112;2023-08-21T05:12:41;19.20;99.90
18932;DHT22;9598;50.954;3.112;2023-08-21T05:17:44;19.10;99.90
18932;DHT22;9598;50.954;3.112;2023-08-21T05:22:46;19.10;99.90
18932;DHT22;9598;50.954;3.112;2023-08-21T05:27:50;19.10;99.90
18932;DHT22;9598;50.954;3.112;2023-08-21T05:32:52;19.10;99.90
18932;DHT22;9598;50.954;3.112;2023-08-21T05:37:54;19.10;99.90
18932;DHT22;9598;50.954;3.112;2023-08-21T05:42:58;19.10;99.90
18932;DHT22;9598;50.954;3.112;2023-08-21T05:48:01;19.10;99.90
18932;DHT22;9598;50.954;3.112;2023-08-21T05:53:04;19.10;99.90
18932;DHT22;9598;50.954;3.112;2023-08-21T05:58:08;19.10;99.90
18932;DHT22;9598;50.954;3.112;2023-08-21T06:03:10;19.10;99.90
18932;DHT22;9598;50.954;3.112;2023-08-21T06:08:35;19.10;99.90
18932;DHT22;9598;50.954;3.112;2023-08-21T06:13:39;19.10;99.90
18932;DHT22;9598;50.954;3.112;2023-08-21T06:18:41;19.10;99.90
18932;DHT22;9598;50.954;3.112;2023-08-21T06:23:43;19.20;99.90
18932;DHT22;9598;50.954;3.112;2023-08-21T06:28:46;19.20;99.90
18932;DHT22;9598;50.954;3.112;2023-08-21T06:33:48;19.30;99.90
18932;DHT22;9598;50.954;3.112;2023-08-21T06:38:52;19.30;99.90
18932;DHT22;9598;50.954;3.112;2023-08-21T06:43:56;19.30;99.90
18932;DHT22;9598;50.954;3.112;2023-08-21T06:48:59;19.30;99.90
18932;DHT22;9598;50.954;3.112;2023-08-21T06:54:01;19.30;99.90
18932;DHT22;9598;50.954;3.112;2023-08-21T06:59:04;19.40;99.90
18932;DHT22;9598;50.954;3.112;2023-08-21T07:04:07;19.40;99.90
18932;DHT22;9598;50.954;3.112;2023-08-21T07:09:09;19.50;99.90
18932;DHT22;9598;50.954;3.112;2023-08-21T07:14:12;19.50;99.90
18932;DHT22;9598;50.954;3.112;2023-08-21T07:19:14;19.60;99.90
18932;DHT22;9598;50.954;3.112;2023-08-21T07:24:16;19.60;99.90
18932;DHT22;9598;50.954;3.112;2023-08-21T07:29:20;19.70;99.90
18932;DHT22;9598;50.954;3.112;2023-08-21T07:34:22;19.70;99.90
18932;DHT22;9598;50.954;3.112;2023-08-21T07:39:24;19.80;99.90
18932;DHT22;9598;50.954;3.112;2023-08-21T07:44:28;19.90;99.90
18932;DHT22;9598;50.954;3.112;2023-08-21T07:49:30;20.00;99.90
18932;DHT22;9598;50.954;3.112;2023-08-21T07:54:32;20.10;99.90
18932;DHT22;9598;50.954;3.112;2023-08-21T07:59:36;20.20;99.90
18932;DHT22;9598;50.954;3.112;2023-08-21T08:04:38;20.30;99.90
18932;DHT22;9598;50.954;3.112;2023-08-21T08:09:40;20.40;99.90
18932;DHT22;9598;50.954;3.112;2023-08-21T08:14:43;20.50;99.90
18932;DHT22;9598;50.954;3.112;2023-08-21T08:19:45;20.70;99.90
18932;DHT22;9598;50.954;3.112;2023-08-21T08:24:47;20.90;99.90
18932;DHT22;9598;50.954;3.112;2023-08-21T08:29:51;21.10;99.90
18932;DHT22;9598;50.954;3.112;2023-08-21T08:34:53;21.20;99.90
18932;DHT22;9598;50.954;3.112;2023-08-21T08:39:55;21.40;99.90
18932;DHT22;9598;50.954;3.112;2023-08-21T08:45:02;21.50;99.90
18932;DHT22;9598;50.954;3.112;2023-08-21T08:50:06;21.70;99.90
18932;DHT22;9598;50.954;3.112;2023-08-21T08:55:09;21.80;99.90
18932;DHT22;9598;50.954;3.112;2023-08-21T09:00:14;22.00;99.90
18932;DHT22;9598;50.954;3.112;2023-08-21T09:05:16;22.20;99.90
18932;DHT22;9598;50.954;3.112;2023-08-21T09:10:18;22.40;99.90
18932;DHT22;9598;50.954;3.112;2023-08-21T09:15:27;22.80;99.90
18932;DHT22;9598;50.954;3.112;2023-08-21T09:20:35;22.90;99.90
18932;DHT22;9598;50.954;3.112;2023-08-21T09:25:38;23.20;99.90
18932;DHT22;9598;50.954;3.112;2023-08-21T09:30:46;23.50;99.90
18932;DHT22;9598;50.954;3.112;2023-08-21T09:35:51;23.70;99.90
18932;DHT22;9598;50.954;3.112;2023-08-21T09:40:54;23.80;99.90
18932;DHT22;9598;50.954;3.112;2023-08-21T09:45:58;24.00;99.90
18932;DHT22;9598;50.954;3.112;2023-08-21T09:51:00;24.00;99.90
18932;DHT22;9598;50.954;3.112;2023-08-21T09:56:05;24.20;99.90
18932;DHT22;9598;50.954;3.112;2023-08-21T10:01:09;24.40;99.90
18932;DHT22;9598;50.954;3.112;2023-08-21T10:06:16;24.60;99.90
18932;DHT22;9598;50.954;3.112;2023-08-21T10:11:20;24.70;99.90
18932;DHT22;9598;50.954;3.112;2023-08-21T10:16:24;24.80;99.90
18932;DHT22;9598;50.954;3.112;2023-08-21T10:21:26;24.90;99.90
18932;DHT22;9598;50.954;3.112;2023-08-21T10:26:28;25.00;99.90
18932;DHT22;9598;50.954;3.112;2023-08-21T10:31:33;25.10;99.90
18932;DHT22;9598;50.954;3.112;2023-08-21T10:37:09;25.20;99.90
18932;DHT22;9598;50.954;3.112;2023-08-21T10:42:13;25.20;99.90
18932;DHT22;9598;50.954;3.112;2023-08-21T10:47:19;25.30;99.90
18932;DHT22;9598;50.954;3.112;2023-08-21T10:52:23;25.40;99.90
18932;DHT22;9598;50.954;3.112;2023-08-21T10:57:27;25.40;99.90
18932;DHT22;9598;50.954;3.112;2023-08-21T11:02:31;25.60;99.90
18932;DHT22;9598;50.954;3.112;2023-08-21T11:07:37;25.70;99.90
18932;DHT22;9598;50.954;3.112;2023-08-21T11:12:48;25.90;99.90
18932;DHT22;9598;50.954;3.112;2023-08-21T11:17:53;26.10;99.90
18932;DHT22;9598;50.954;3.112;2023-08-21T11:22:59;26.10;99.90
18932;DHT22;9598;50.954;3.112;2023-08-21T11:28:03;26.20;99.90
18932;DHT22;9598;50.954;3.112;2023-08-21T11:33:09;26.30;99.90
18932;DHT22;9598;50.954;3.112;2023-08-21T11:38:16;26.40;99.90
18932;DHT22;9598;50.954;3.112;2023-08-21T11:43:18;26.50;99.90
18932;DHT22;9598;50.954;3.112;2023-08-21T11:48:22;26.40;99.90
18932;DHT22;9598;50.954;3.112;2023-08-21T11:53:35;26.60;99.90
18932;DHT22;9598;50.954;3.112;2023-08-21T11:58:38;26.60;99.90
18932;DHT22;9598;50.954;3.112;2023-08-21T12:03:44;26.60;99.90
18932;DHT22;9598;50.954;3.112;2023-08-21T12:08:46;26.60;99.90
18932;DHT22;9598;50.954;3.112;2023-08-21T12:13:48;26.80;99.90
18932;DHT22;9598;50.954;3.112;2023-08-21T12:18:51;26.80;99.90
18932;DHT22;9598;50.954;3.112;2023-08-21T12:23:55;26.90;99.90
18932;DHT22;9598;50.954;3.112;2023-08-21T12:28:57;26.90;99.90
18932;DHT22;9598;50.954;3.112;2023-08-21T12:34:01;26.90;99.90
18932;DHT22;9598;50.954;3.112;2023-08-21T12:39:04;27.00;99.90
18932;DHT22;9598;50.954;3.112;2023-08-21T12:44:06;27.00;99.90
18932;DHT22;9598;50.954;3.112;2023-08-21T12:49:10;27.10;99.90
18932;DHT22;9598;50.954;3.112;2023-08-21T12:54:13;27.10;99.90
18932;DHT22;9598;50.954;3.112;2023-08-21T12:59:15;27.10;99.90
18932;DHT22;9598;50.954;3.112;2023-08-21T13:04:19;27.20;99.90
18932;DHT22;9598;50.954;3.112;2023-08-21T13:09:21;27.40;99.90
18932;DHT22;9598;50.954;3.112;2023-08-21T13:14:24;27.40;99.90
18932;DHT22;9598;50.954;3.112;2023-08-21T13:19:28;27.50;99.90
18932;DHT22;9598;50.954;3.112;2023-08-21T13:24:30;27.50;99.90
18932;DHT22;9598;50.954;3.112;2023-08-21T13:29:32;27.60;99.90
18932;DHT22;9598;50.954;3.112;2023-08-21T13:34:36;27.70;99.90
18932;DHT22;9598;50.954;3.112;2023-08-21T13:39:38;27.70;99.90
18932;DHT22;9598;50.954;3.112;2023-08-21T13:44:40;27.70;99.90
18932;DHT22;9598;50.954;3.112;2023-08-21T13:49:43;27.80;99.90
18932;DHT22;9598;50.954;3.112;2023-08-21T13:54:45;27.80;99.90
18932;DHT22;9598;50.954;3.112;2023-08-21T13:59:47;27.80;99.90
18932;DHT22;9598;50.954;3.112;2023-08-21T14:04:51;27.70;99.90
18932;DHT22;9598;50.954;3.112;2023-08-21T14:09:53;27.80;99.90
18932;DHT22;9598;50.954;3.112;2023-08-21T14:14:55;27.80;99.90
18932;DHT22;9598;50.954;3.112;2023-08-21T14:19:59;27.80;99.90
18932;DHT22;9598;50.954;3.112;2023-08-21T14:25:01;27.80;99.90
18932;DHT22;9598;50.954;3.112;2023-08-21T14:30:05;27.90;99.90
18932;DHT22;9598;50.954;3.112;2023-08-21T14:35:09;27.80;99.90
18932;DHT22;9598;50.954;3.112;2023-08-21T14:40:11;27.50;99.90
18932;DHT22;9598;50.954;3.112;2023-08-21T14:45:13;27.50;99.90
18932;DHT22;9598;50.954;3.112;2023-08-21T14:50:17;27.60;99.90
18932;DHT22;9598;50.954;3.112;2023-08-21T14:55:19;27.70;99.90
18932;DHT22;9598;50.954;3.112;2023-08-21T15:00:21;27.70;99.90
18932;DHT22;9598;50.954;3.112;2023-08-21T15:05:26;27.70;99.90
18932;DHT22;9598;50.954;3.112;2023-08-21T15:10:28;27.60;99.90
18932;DHT22;9598;50.954;3.112;2023-08-21T15:15:31;27.60;99.90
18932;DHT22;9598;50.954;3.112;2023-08-21T15:20:34;27.40;99.90
18932;DHT22;9598;50.954;3.112;2023-08-21T15:25:36;27.40;99.90
18932;DHT22;9598;50.954;3.112;2023-08-21T15:30:38;27.40;99.90
18932;DHT22;9598;50.954;3.112;2023-08-21T15:35:41;27.30;99.90
18932;DHT22;9598;50.954;3.112;2023-08-21T15:40:44;27.40;99.90
18932;DHT22;9598;50.954;3.112;2023-08-21T15:45:46;27.40;99.90
18932;DHT22;9598;50.954;3.112;2023-08-21T15:50:49;27.40;99.90
18932;DHT22;9598;50.954;3.112;2023-08-21T15:55:51;27.50;99.90
18932;DHT22;9598;50.954;3.112;2023-08-21T16:00:53;27.30;99.90
18932;DHT22;9598;50.954;3.112;2023-08-21T16:05:57;27.20;99.90
18932;DHT22;9598;50.954;3.112;2023-08-21T16:10:59;27.10;99.90
18932;DHT22;9598;50.954;3.112;2023-08-21T16:16:01;27.10;99.90
18932;DHT22;9598;50.954;3.112;2023-08-21T16:21:04;27.10;99.90
18932;DHT22;9598;50.954;3.112;2023-08-21T16:26:07;27.00;99.90
18932;DHT22;9598;50.954;3.112;2023-08-21T16:31:14;27.00;99.90
18932;DHT22;9598;50.954;3.112;2023-08-21T16:36:17;26.90;99.90
18932;DHT22;9598;50.954;3.112;2023-08-21T16:41:19;26.80;99.90
18932;DHT22;9598;50.954;3.112;2023-08-21T16:46:21;26.70;99.90
18932;DHT22;9598;50.954;3.112;2023-08-21T16:51:25;26.60;99.90
18932;DHT22;9598;50.954;3.112;2023-08-21T16:56:27;26.50;99.90
18932;DHT22;9598;50.954;3.112;2023-08-21T17:01:29;26.40;99.90
18932;DHT22;9598;50.954;3.112;2023-08-21T17:06:32;26.40;99.90
18932;DHT22;9598;50.954;3.112;2023-08-21T17:11:34;26.30;99.90
18932;DHT22;9598;50.954;3.112;2023-08-21T17:16:36;26.20;99.90
18932;DHT22;9598;50.954;3.112;2023-08-21T17:21:40;26.10;99.90
18932;DHT22;9598;50.954;3.112;2023-08-21T17:26:42;26.10;99.90
18932;DHT22;9598;50.954;3.112;2023-08-21T17:31:44;26.00;99.90
18932;DHT22;9598;50.954;3.112;2023-08-21T17:36:47;25.90;99.90
18932;DHT22;9598;50.954;3.112;2023-08-21T17:41:52;25.70;99.90
18932;DHT22;9598;50.954;3.112;2023-08-21T17:46:54;25.60;99.90
18932;DHT22;9598;50.954;3.112;2023-08-21T17:51:58;25.50;99.90
18932;DHT22;9598;50.954;3.112;2023-08-21T17:57:00;25.40;99.90
18932;DHT22;9598;50.954;3.112;2023-08-21T18:02:02;25.30;99.90
18932;DHT22;9598;50.954;3.112;2023-08-21T18:07:05;25.30;99.90
18932;DHT22;9598;50.954;3.112;2023-08-21T18:12:08;25.10;99.90
18932;DHT22;9598;50.954;3.112;2023-08-21T18:17:10;25.10;99.90
18932;DHT22;9598;50.954;3.112;2023-08-21T18:22:15;25.00;99.90
18932;DHT22;9598;50.954;3.112;2023-08-21T18:27:18;24.90;99.90
18932;DHT22;9598;50.954;3.112;2023-08-21T18:32:20;24.80;99.90
18932;DHT22;9598;50.954;3.112;2023-08-21T18:37:23;24.80;99.90
18932;DHT22;9598;50.954;3.112;2023-08-21T18:42:25;24.80;99.90
18932;DHT22;9598;50.954;3.112;2023-08-21T18:47:27;24.70;99.90
18932;DHT22;9598;50.954;3.112;2023-08-21T18:52:30;24.60;99.90
18932;DHT22;9598;50.954;3.112;2023-08-21T18:57:32;24.60;99.90
18932;DHT22;9598;50.954;3.112;2023-08-21T19:02:34;24.50;99.90
18932;DHT22;9598;50.954;3.112;2023-08-21T19:07:38;24.40;99.90
18932;DHT22;9598;50.954;3.112;2023-08-21T19:12:40;24.30;99.90
18932;DHT22;9598;50.954;3.112;2023-08-21T19:17:42;24.30;99.90
18932;DHT22;9598;50.954;3.112;2023-08-21T19:22:46;24.30;99.90
18932;DHT22;9598;50.954;3.112;2023-08-21T19:27:48;24.20;99.90
18932;DHT22;9598;50.954;3.112;2023-08-21T19:32:50;24.10;99.90
18932;DHT22;9598;50.954;3.112;2023-08-21T19:37:53;24.00;99.90
18932;DHT22;9598;50.954;3.112;2023-08-21T19:42:55;24.00;99.90
18932;DHT22;9598;50.954;3.112;2023-08-21T19:47:58;23.90;99.90
18932;DHT22;9598;50.954;3.112;2023-08-21T19:53:01;23.80;99.90
18932;DHT22;9598;50.954;3.112;2023-08-21T19:58:03;23.70;99.90
18932;DHT22;9598;50.954;3.112;2023-08-21T20:03:05;23.70;99.90
18932;DHT22;9598;50.954;3.112;2023-08-21T20:08:09;23.70;99.90
18932;DHT22;9598;50.954;3.112;2023-08-21T20:13:11;23.60;99.90
18932;DHT22;9598;50.954;3.112;2023-08-21T20:18:13;23.50;99.90
18932;DHT22;9598;50.954;3.112;2023-08-21T20:23:16;23.40;99.90
18932;DHT22;9598;50.954;3.112;2023-08-21T20:28:18;23.40;99.90
18932;DHT22;9598;50.954;3.112;2023-08-21T20:33:20;23.30;99.90
18932;DHT22;9598;50.954;3.112;2023-08-21T20:38:24;23.30;99.90
18932;DHT22;9598;50.954;3.112;2023-08-21T20:43:26;23.10;99.90
18932;DHT22;9598;50.954;3.112;2023-08-21T20:48:28;23.10;99.90
18932;DHT22;9598;50.954;3.112;2023-08-21T20:53:32;23.10;99.90
18932;DHT22;9598;50.954;3.112;2023-08-21T20:58:34;23.00;99.90
18932;DHT22;9598;50.954;3.112;2023-08-21T21:03:36;23.00;99.90
18932;DHT22;9598;50.954;3.112;2023-08-21T21:08:40;22.90;99.90
18932;DHT22;9598;50.954;3.112;2023-08-21T21:13:42;22.90;99.90
18932;DHT22;9598;50.954;3.112;2023-08-21T21:18:44;22.80;99.90
18932;DHT22;9598;50.954;3.112;2023-08-21T21:23:47;22.70;99.90
18932;DHT22;9598;50.954;3.112;2023-08-21T21:28:49;22.70;99.90
18932;DHT22;9598;50.954;3.112;2023-08-21T21:33:51;22.60;99.90
18932;DHT22;9598;50.954;3.112;2023-08-21T21:38:55;22.60;99.90
18932;DHT22;9598;50.954;3.112;2023-08-21T21:43:57;22.50;99.90
18932;DHT22;9598;50.954;3.112;2023-08-21T21:49:00;22.50;99.90
18932;DHT22;9598;50.954;3.112;2023-08-21T21:54:03;22.50;99.90
18932;DHT22;9598;50.954;3.112;2023-08-21T21:59:05;22.30;99.90
18932;DHT22;9598;50.954;3.112;2023-08-21T22:04:08;22.30;99.90
18932;DHT22;9598;50.954;3.112;2023-08-21T22:09:11;22.30;99.90
18932;DHT22;9598;50.954;3.112;2023-08-21T22:14:15;22.30;99.90
18932;DHT22;9598;50.954;3.112;2023-08-21T22:19:17;22.30;99.90
18932;DHT22;9598;50.954;3.112;2023-08-21T22:24:21;22.30;99.90
18932;DHT22;9598;50.954;3.112;2023-08-21T22:29:23;22.30;99.90
18932;DHT22;9598;50.954;3.112;2023-08-21T22:34:25;22.30;99.90
18932;DHT22;9598;50.954;3.112;2023-08-21T22:39:29;22.20;99.90
18932;DHT22;9598;50.954;3.112;2023-08-21T22:44:31;22.10;99.90
18932;DHT22;9598;50.954;3.112;2023-08-21T22:49:33;22.10;99.90
18932;DHT22;9598;50.954;3.112;2023-08-21T22:54:37;22.10;99.90
18932;DHT22;9598;50.954;3.112;2023-08-21T22:59:39;22.10;99.90
18932;DHT22;9598;50.954;3.112;2023-08-21T23:04:41;22.10;99.90
18932;DHT22;9598;50.954;3.112;2023-08-21T23:09:44;22.10;99.90
18932;DHT22;9598;50.954;3.112;2023-08-21T23:14:46;22.10;99.90
18932;DHT22;9598;50.954;3.112;2023-08-21T23:19:48;22.00;99.90
18932;DHT22;9598;50.954;3.112;2023-08-21T23:24:52;22.00;99.90
18932;DHT22;9598;50.954;3.112;2023-08-21T23:29:54;22.00;99.90
18932;DHT22;9598;50.954;3.112;2023-08-21T23:34:56;22.00;99.90
18932;DHT22;9598;50.954;3.112;2023-08-21T23:39:59;21.90;99.90
18932;DHT22;9598;50.954;3.112;2023-08-21T23:45:01;21.80;99.90
18932;DHT22;9598;50.954;3.112;2023-08-21T23:50:06;21.80;99.90
18932;DHT22;9598;50.954;3.112;2023-08-21T23:55:09;21.70;99.90
